<?xml version="1.0" encoding="UTF-8" standalone="no" ?>
<gpx xmlns="http://www.topografix.com/GPX/1/1" xmlns:xsi="http://www.w3.org/2001/XMLSchema-instance" xsi:schemaLocation="http://www.topografix.com/GPX/1/1 http://www.topografix.com/GPX/1/1/gpx.xsd" version="1.1" creator="VisuGPX - https://www.visugpx.com">
  <metadata>
    <name>Le chemin des douaniers</name>
    <desc><![CDATA[Le chemin des douaniers]]></desc>
  </metadata>
  <trk>
    <name><![CDATA[2014-08-08-01]]></name>
    <trkseg>
      <trkpt lat="43.33874" lon="5.2537">
        <ele>54</ele>
        <time>2014-08-08T08:36:19Z</time>
      </trkpt>
      <trkpt lat="43.33853" lon="5.25375">
        <ele>54</ele>
        <time>2014-08-08T08:36:32Z</time>
      </trkpt>
      <trkpt lat="43.33835" lon="5.25377">
        <ele>54</ele>
        <time>2014-08-08T08:36:51Z</time>
      </trkpt>
      <trkpt lat="43.33815" lon="5.25373">
        <ele>54</ele>
        <time>2014-08-08T08:36:59Z</time>
      </trkpt>
      <trkpt lat="43.33794" lon="5.2537">
        <ele>54</ele>
        <time>2014-08-08T08:37:05Z</time>
      </trkpt>
      <trkpt lat="43.33774" lon="5.25358">
        <ele>54</ele>
        <time>2014-08-08T08:37:15Z</time>
      </trkpt>
      <trkpt lat="43.33763" lon="5.25331">
        <ele>54</ele>
        <time>2014-08-08T08:37:51Z</time>
      </trkpt>
      <trkpt lat="43.33771" lon="5.25304">
        <ele>54</ele>
        <time>2014-08-08T08:38:15Z</time>
      </trkpt>
      <trkpt lat="43.33788" lon="5.25296">
        <ele>54</ele>
        <time>2014-08-08T08:38:22Z</time>
      </trkpt>
      <trkpt lat="43.33806" lon="5.2529">
        <ele>54</ele>
        <time>2014-08-08T08:38:25Z</time>
      </trkpt>
      <trkpt lat="43.33828" lon="5.25288">
        <ele>54</ele>
        <time>2014-08-08T08:38:32Z</time>
      </trkpt>
      <trkpt lat="43.33839" lon="5.25261">
        <ele>54</ele>
        <time>2014-08-08T08:39:12Z</time>
      </trkpt>
      <trkpt lat="43.3382" lon="5.25247">
        <ele>54</ele>
        <time>2014-08-08T08:39:47Z</time>
      </trkpt>
      <trkpt lat="43.33798" lon="5.25252">
        <ele>54</ele>
        <time>2014-08-08T08:39:56Z</time>
      </trkpt>
      <trkpt lat="43.33785" lon="5.25228">
        <ele>54</ele>
        <time>2014-08-08T08:40:33Z</time>
      </trkpt>
      <trkpt lat="43.33763" lon="5.25229">
        <ele>54</ele>
        <time>2014-08-08T08:41:03Z</time>
      </trkpt>
      <trkpt lat="43.33746" lon="5.25246">
        <ele>54</ele>
        <time>2014-08-08T08:41:15Z</time>
      </trkpt>
      <trkpt lat="43.33724" lon="5.25249">
        <ele>54</ele>
        <time>2014-08-08T08:41:46Z</time>
      </trkpt>
      <trkpt lat="43.33703" lon="5.25254">
        <ele>54</ele>
        <time>2014-08-08T08:41:57Z</time>
      </trkpt>
      <trkpt lat="43.33681" lon="5.25256">
        <ele>54</ele>
        <time>2014-08-08T08:42:08Z</time>
      </trkpt>
      <trkpt lat="43.3366" lon="5.25245">
        <ele>54</ele>
        <time>2014-08-08T08:42:36Z</time>
      </trkpt>
      <trkpt lat="43.33653" lon="5.25217">
        <ele>54</ele>
        <time>2014-08-08T08:43:03Z</time>
      </trkpt>
      <trkpt lat="43.33644" lon="5.2519">
        <ele>54</ele>
        <time>2014-08-08T08:43:26Z</time>
      </trkpt>
      <trkpt lat="43.33631" lon="5.25166">
        <ele>54</ele>
        <time>2014-08-08T08:43:46Z</time>
      </trkpt>
      <trkpt lat="43.33613" lon="5.25148">
        <ele>54</ele>
        <time>2014-08-08T08:44:01Z</time>
      </trkpt>
      <trkpt lat="43.33601" lon="5.25123">
        <ele>54</ele>
        <time>2014-08-08T08:44:34Z</time>
      </trkpt>
      <trkpt lat="43.33587" lon="5.25099">
        <ele>6</ele>
        <time>2014-08-08T08:46:25Z</time>
      </trkpt>
      <trkpt lat="43.33577" lon="5.25073">
        <ele>6.8</ele>
        <time>2014-08-08T08:46:39Z</time>
      </trkpt>
      <trkpt lat="43.33567" lon="5.25046">
        <ele>9.8</ele>
        <time>2014-08-08T08:47:07Z</time>
      </trkpt>
      <trkpt lat="43.33557" lon="5.2502">
        <ele>10.3</ele>
        <time>2014-08-08T08:47:29Z</time>
      </trkpt>
      <trkpt lat="43.33553" lon="5.2499">
        <ele>11.3</ele>
        <time>2014-08-08T08:47:58Z</time>
      </trkpt>
      <trkpt lat="43.33545" lon="5.24962">
        <ele>13</ele>
        <time>2014-08-08T08:48:35Z</time>
      </trkpt>
      <trkpt lat="43.33555" lon="5.24934">
        <ele>13.8</ele>
        <time>2014-08-08T08:49:14Z</time>
      </trkpt>
      <trkpt lat="43.33545" lon="5.24907">
        <ele>14.6</ele>
        <time>2014-08-08T08:49:58Z</time>
      </trkpt>
      <trkpt lat="43.3353" lon="5.24885">
        <ele>16</ele>
        <time>2014-08-08T08:50:23Z</time>
      </trkpt>
      <trkpt lat="43.3353" lon="5.24854">
        <ele>18.6</ele>
        <time>2014-08-08T08:50:53Z</time>
      </trkpt>
      <trkpt lat="43.33513" lon="5.24834">
        <ele>22.7</ele>
        <time>2014-08-08T08:51:20Z</time>
      </trkpt>
      <trkpt lat="43.33497" lon="5.24813">
        <ele>26.7</ele>
        <time>2014-08-08T08:51:49Z</time>
      </trkpt>
      <trkpt lat="43.33481" lon="5.24794">
        <ele>28.3</ele>
        <time>2014-08-08T08:52:04Z</time>
      </trkpt>
      <trkpt lat="43.33464" lon="5.24775">
        <ele>29.7</ele>
        <time>2014-08-08T08:52:23Z</time>
      </trkpt>
      <trkpt lat="43.33453" lon="5.24748">
        <ele>30.2</ele>
        <time>2014-08-08T08:52:59Z</time>
      </trkpt>
      <trkpt lat="43.33446" lon="5.2472">
        <ele>36</ele>
        <time>2014-08-08T08:54:17Z</time>
      </trkpt>
      <trkpt lat="43.33429" lon="5.24701">
        <ele>36.2</ele>
        <time>2014-08-08T08:54:44Z</time>
      </trkpt>
      <trkpt lat="43.33422" lon="5.24672">
        <ele>35</ele>
        <time>2014-08-08T08:55:04Z</time>
      </trkpt>
      <trkpt lat="43.33413" lon="5.24645">
        <ele>34.2</ele>
        <time>2014-08-08T08:55:25Z</time>
      </trkpt>
      <trkpt lat="43.33415" lon="5.24614">
        <ele>34</ele>
        <time>2014-08-08T08:56:16Z</time>
      </trkpt>
      <trkpt lat="43.33434" lon="5.24601">
        <ele>33.9</ele>
        <time>2014-08-08T08:56:38Z</time>
      </trkpt>
      <trkpt lat="43.33447" lon="5.24576">
        <ele>33.5</ele>
        <time>2014-08-08T08:56:50Z</time>
      </trkpt>
      <trkpt lat="43.33448" lon="5.24547">
        <ele>33.2</ele>
        <time>2014-08-08T08:57:02Z</time>
      </trkpt>
      <trkpt lat="43.33448" lon="5.24517">
        <ele>32.9</ele>
        <time>2014-08-08T08:57:45Z</time>
      </trkpt>
      <trkpt lat="43.33415" lon="5.24622">
        <ele>32.9</ele>
        <time>2014-08-08T08:57:52Z</time>
      </trkpt>
      <trkpt lat="43.33404" lon="5.24596">
        <ele>37.2</ele>
        <time>2014-08-08T08:59:04Z</time>
      </trkpt>
      <trkpt lat="43.33426" lon="5.24588">
        <ele>35.9</ele>
        <time>2014-08-08T09:00:08Z</time>
      </trkpt>
      <trkpt lat="43.33446" lon="5.24578">
        <ele>35.5</ele>
        <time>2014-08-08T09:01:33Z</time>
      </trkpt>
      <trkpt lat="43.33468" lon="5.24576">
        <ele>35.5</ele>
        <time>2014-08-08T09:02:33Z</time>
      </trkpt>
      <trkpt lat="43.33449" lon="5.2456">
        <ele>34.5</ele>
        <time>2014-08-08T09:04:35Z</time>
      </trkpt>
      <trkpt lat="43.33437" lon="5.24535">
        <ele>35.2</ele>
        <time>2014-08-08T09:05:08Z</time>
      </trkpt>
      <trkpt lat="43.33415" lon="5.24538">
        <ele>36</ele>
        <time>2014-08-08T09:05:33Z</time>
      </trkpt>
      <trkpt lat="43.33404" lon="5.24565">
        <ele>36</ele>
        <time>2014-08-08T09:06:13Z</time>
      </trkpt>
      <trkpt lat="43.33393" lon="5.24539">
        <ele>36</ele>
        <time>2014-08-08T09:06:42Z</time>
      </trkpt>
      <trkpt lat="43.3339" lon="5.24508">
        <ele>34.5</ele>
        <time>2014-08-08T09:07:10Z</time>
      </trkpt>
      <trkpt lat="43.3339" lon="5.24477">
        <ele>34.2</ele>
        <time>2014-08-08T09:07:43Z</time>
      </trkpt>
      <trkpt lat="43.33398" lon="5.24449">
        <ele>36.9</ele>
        <time>2014-08-08T09:08:34Z</time>
      </trkpt>
      <trkpt lat="43.33377" lon="5.2444">
        <ele>38</ele>
        <time>2014-08-08T09:11:09Z</time>
      </trkpt>
      <trkpt lat="43.33356" lon="5.24432">
        <ele>38.7</ele>
        <time>2014-08-08T09:11:31Z</time>
      </trkpt>
      <trkpt lat="43.33347" lon="5.24404">
        <ele>38.2</ele>
        <time>2014-08-08T09:14:37Z</time>
      </trkpt>
      <trkpt lat="43.33336" lon="5.24378">
        <ele>37.5</ele>
        <time>2014-08-08T09:14:56Z</time>
      </trkpt>
      <trkpt lat="43.33323" lon="5.24353">
        <ele>36</ele>
        <time>2014-08-08T09:15:22Z</time>
      </trkpt>
      <trkpt lat="43.33312" lon="5.24326">
        <ele>35.5</ele>
        <time>2014-08-08T09:15:50Z</time>
      </trkpt>
      <trkpt lat="43.3329" lon="5.24319">
        <ele>34.2</ele>
        <time>2014-08-08T09:16:26Z</time>
      </trkpt>
      <trkpt lat="43.33281" lon="5.24291">
        <ele>33.5</ele>
        <time>2014-08-08T09:18:16Z</time>
      </trkpt>
      <trkpt lat="43.33269" lon="5.24266">
        <ele>32.5</ele>
        <time>2014-08-08T09:18:48Z</time>
      </trkpt>
      <trkpt lat="43.3325" lon="5.24249">
        <ele>30.8</ele>
        <time>2014-08-08T09:19:12Z</time>
      </trkpt>
      <trkpt lat="43.33264" lon="5.24274">
        <ele>28.3</ele>
        <time>2014-08-08T09:21:04Z</time>
      </trkpt>
      <trkpt lat="43.33243" lon="5.24284">
        <ele>26.5</ele>
        <time>2014-08-08T09:21:46Z</time>
      </trkpt>
      <trkpt lat="43.33258" lon="5.24262">
        <ele>23.6</ele>
        <time>2014-08-08T09:33:21Z</time>
      </trkpt>
      <trkpt lat="43.33236" lon="5.24266">
        <ele>21.6</ele>
        <time>2014-08-08T09:35:58Z</time>
      </trkpt>
      <trkpt lat="43.33237" lon="5.24236">
        <ele>23.7</ele>
        <time>2014-08-08T09:38:17Z</time>
      </trkpt>
      <trkpt lat="43.33239" lon="5.24206">
        <ele>25</ele>
        <time>2014-08-08T09:38:46Z</time>
      </trkpt>
      <trkpt lat="43.33231" lon="5.24177">
        <ele>25.3</ele>
        <time>2014-08-08T09:39:17Z</time>
      </trkpt>
      <trkpt lat="43.3323" lon="5.24147">
        <ele>25.7</ele>
        <time>2014-08-08T09:39:48Z</time>
      </trkpt>
      <trkpt lat="43.3323" lon="5.24117">
        <ele>26.7</ele>
        <time>2014-08-08T09:40:04Z</time>
      </trkpt>
      <trkpt lat="43.33232" lon="5.24086">
        <ele>26.8</ele>
        <time>2014-08-08T09:40:29Z</time>
      </trkpt>
      <trkpt lat="43.33225" lon="5.24059">
        <ele>27.3</ele>
        <time>2014-08-08T09:40:49Z</time>
      </trkpt>
      <trkpt lat="43.33218" lon="5.2403">
        <ele>28.1</ele>
        <time>2014-08-08T09:41:08Z</time>
      </trkpt>
      <trkpt lat="43.33215" lon="5.24">
        <ele>27.8</ele>
        <time>2014-08-08T09:41:37Z</time>
      </trkpt>
      <trkpt lat="43.33203" lon="5.23975">
        <ele>27.7</ele>
        <time>2014-08-08T09:42:12Z</time>
      </trkpt>
      <trkpt lat="43.332" lon="5.23944">
        <ele>27.7</ele>
        <time>2014-08-08T09:43:42Z</time>
      </trkpt>
      <trkpt lat="43.33195" lon="5.23914">
        <ele>27.6</ele>
        <time>2014-08-08T09:44:19Z</time>
      </trkpt>
      <trkpt lat="43.33189" lon="5.23885">
        <ele>27.2</ele>
        <time>2014-08-08T09:45:07Z</time>
      </trkpt>
      <trkpt lat="43.3319" lon="5.23855">
        <ele>26.7</ele>
        <time>2014-08-08T09:45:36Z</time>
      </trkpt>
      <trkpt lat="43.33183" lon="5.23827">
        <ele>26.2</ele>
        <time>2014-08-08T09:45:58Z</time>
      </trkpt>
      <trkpt lat="43.33183" lon="5.23796">
        <ele>26</ele>
        <time>2014-08-08T09:46:33Z</time>
      </trkpt>
      <trkpt lat="43.3318" lon="5.23766">
        <ele>23.2</ele>
        <time>2014-08-08T09:48:04Z</time>
      </trkpt>
      <trkpt lat="43.33184" lon="5.23736">
        <ele>23.2</ele>
        <time>2014-08-08T09:49:09Z</time>
      </trkpt>
      <trkpt lat="43.332" lon="5.23715">
        <ele>22.5</ele>
        <time>2014-08-08T09:50:43Z</time>
      </trkpt>
      <trkpt lat="43.33214" lon="5.23691">
        <ele>23.6</ele>
        <time>2014-08-08T09:51:40Z</time>
      </trkpt>
      <trkpt lat="43.33233" lon="5.23674">
        <ele>22</ele>
        <time>2014-08-08T09:52:40Z</time>
      </trkpt>
      <trkpt lat="43.33222" lon="5.23647">
        <ele>22.2</ele>
        <time>2014-08-08T09:54:03Z</time>
      </trkpt>
      <trkpt lat="43.33205" lon="5.23629">
        <ele>23.5</ele>
        <time>2014-08-08T09:55:21Z</time>
      </trkpt>
      <trkpt lat="43.33194" lon="5.23603">
        <ele>25.3</ele>
        <time>2014-08-08T09:55:45Z</time>
      </trkpt>
      <trkpt lat="43.33186" lon="5.23574">
        <ele>28.5</ele>
        <time>2014-08-08T09:56:09Z</time>
      </trkpt>
      <trkpt lat="43.33179" lon="5.23545">
        <ele>29.2</ele>
        <time>2014-08-08T09:56:29Z</time>
      </trkpt>
      <trkpt lat="43.33168" lon="5.2352">
        <ele>29.2</ele>
        <time>2014-08-08T09:56:45Z</time>
      </trkpt>
      <trkpt lat="43.33162" lon="5.2349">
        <ele>29</ele>
        <time>2014-08-08T09:57:21Z</time>
      </trkpt>
      <trkpt lat="43.33161" lon="5.2346">
        <ele>29.7</ele>
        <time>2014-08-08T09:57:50Z</time>
      </trkpt>
      <trkpt lat="43.33152" lon="5.23433">
        <ele>32</ele>
        <time>2014-08-08T09:58:13Z</time>
      </trkpt>
      <trkpt lat="43.3315" lon="5.23403">
        <ele>32</ele>
        <time>2014-08-08T09:58:37Z</time>
      </trkpt>
      <trkpt lat="43.33145" lon="5.23374">
        <ele>32.5</ele>
        <time>2014-08-08T09:58:53Z</time>
      </trkpt>
      <trkpt lat="43.33144" lon="5.23343">
        <ele>37.2</ele>
        <time>2014-08-08T10:00:21Z</time>
      </trkpt>
      <trkpt lat="43.33127" lon="5.23323">
        <ele>41.7</ele>
        <time>2014-08-08T10:01:16Z</time>
      </trkpt>
      <trkpt lat="43.33126" lon="5.23294">
        <ele>45</ele>
        <time>2014-08-08T10:03:39Z</time>
      </trkpt>
      <trkpt lat="43.33121" lon="5.23264">
        <ele>47.4</ele>
        <time>2014-08-08T10:04:01Z</time>
      </trkpt>
      <trkpt lat="43.33119" lon="5.23234">
        <ele>48.2</ele>
        <time>2014-08-08T10:04:32Z</time>
      </trkpt>
      <trkpt lat="43.33109" lon="5.23207">
        <ele>47.2</ele>
        <time>2014-08-08T10:04:56Z</time>
      </trkpt>
      <trkpt lat="43.33095" lon="5.23183">
        <ele>46.9</ele>
        <time>2014-08-08T10:05:17Z</time>
      </trkpt>
      <trkpt lat="43.33083" lon="5.2316">
        <ele>46.5</ele>
        <time>2014-08-08T10:05:31Z</time>
      </trkpt>
      <trkpt lat="43.3307" lon="5.23136">
        <ele>46.5</ele>
        <time>2014-08-08T10:05:49Z</time>
      </trkpt>
      <trkpt lat="43.33048" lon="5.23138">
        <ele>47</ele>
        <time>2014-08-08T10:06:03Z</time>
      </trkpt>
      <trkpt lat="43.33033" lon="5.23116">
        <ele>45.7</ele>
        <time>2014-08-08T10:06:27Z</time>
      </trkpt>
      <trkpt lat="43.33032" lon="5.23086">
        <ele>43.9</ele>
        <time>2014-08-08T10:06:48Z</time>
      </trkpt>
      <trkpt lat="43.33022" lon="5.23059">
        <ele>42.7</ele>
        <time>2014-08-08T10:07:10Z</time>
      </trkpt>
      <trkpt lat="43.3302" lon="5.23029">
        <ele>41.7</ele>
        <time>2014-08-08T10:07:32Z</time>
      </trkpt>
      <trkpt lat="43.33024" lon="5.23">
        <ele>40.7</ele>
        <time>2014-08-08T10:07:49Z</time>
      </trkpt>
      <trkpt lat="43.33028" lon="5.2297">
        <ele>38.5</ele>
        <time>2014-08-08T10:08:15Z</time>
      </trkpt>
      <trkpt lat="43.3301" lon="5.22954">
        <ele>37.7</ele>
        <time>2014-08-08T10:08:38Z</time>
      </trkpt>
      <trkpt lat="43.3299" lon="5.22941">
        <ele>37.5</ele>
        <time>2014-08-08T10:09:03Z</time>
      </trkpt>
      <trkpt lat="43.32968" lon="5.22947">
        <ele>37.2</ele>
        <time>2014-08-08T10:09:37Z</time>
      </trkpt>
      <trkpt lat="43.3296" lon="5.22919">
        <ele>40.5</ele>
        <time>2014-08-08T10:16:35Z</time>
      </trkpt>
      <trkpt lat="43.32956" lon="5.22888">
        <ele>40.9</ele>
        <time>2014-08-08T10:16:58Z</time>
      </trkpt>
      <trkpt lat="43.32942" lon="5.22865">
        <ele>42</ele>
        <time>2014-08-08T10:17:29Z</time>
      </trkpt>
      <trkpt lat="43.32928" lon="5.22841">
        <ele>44.9</ele>
        <time>2014-08-08T10:18:14Z</time>
      </trkpt>
      <trkpt lat="43.32919" lon="5.22813">
        <ele>42.9</ele>
        <time>2014-08-08T10:20:28Z</time>
      </trkpt>
      <trkpt lat="43.3293" lon="5.2284">
        <ele>39.5</ele>
        <time>2014-08-08T10:23:02Z</time>
      </trkpt>
      <trkpt lat="43.3294" lon="5.22813">
        <ele>50.5</ele>
        <time>2014-08-08T10:24:46Z</time>
      </trkpt>
      <trkpt lat="43.32943" lon="5.22782">
        <ele>50.4</ele>
        <time>2014-08-08T10:25:06Z</time>
      </trkpt>
      <trkpt lat="43.32949" lon="5.22754">
        <ele>47.9</ele>
        <time>2014-08-08T10:25:37Z</time>
      </trkpt>
      <trkpt lat="43.32945" lon="5.22724">
        <ele>47.4</ele>
        <time>2014-08-08T10:25:57Z</time>
      </trkpt>
      <trkpt lat="43.32944" lon="5.22695">
        <ele>47</ele>
        <time>2014-08-08T10:26:28Z</time>
      </trkpt>
      <trkpt lat="43.32945" lon="5.22664">
        <ele>47</ele>
        <time>2014-08-08T10:26:50Z</time>
      </trkpt>
      <trkpt lat="43.32936" lon="5.22636">
        <ele>46.2</ele>
        <time>2014-08-08T10:27:12Z</time>
      </trkpt>
      <trkpt lat="43.32918" lon="5.22619">
        <ele>46.2</ele>
        <time>2014-08-08T10:27:39Z</time>
      </trkpt>
      <trkpt lat="43.32908" lon="5.22592">
        <ele>45.5</ele>
        <time>2014-08-08T10:28:00Z</time>
      </trkpt>
      <trkpt lat="43.32899" lon="5.22565">
        <ele>45.2</ele>
        <time>2014-08-08T10:28:18Z</time>
      </trkpt>
      <trkpt lat="43.32891" lon="5.22537">
        <ele>45.7</ele>
        <time>2014-08-08T10:28:39Z</time>
      </trkpt>
      <trkpt lat="43.32887" lon="5.22508">
        <ele>45.7</ele>
        <time>2014-08-08T10:29:00Z</time>
      </trkpt>
      <trkpt lat="43.32879" lon="5.22481">
        <ele>45.2</ele>
        <time>2014-08-08T10:29:20Z</time>
      </trkpt>
      <trkpt lat="43.32878" lon="5.2245">
        <ele>45</ele>
        <time>2014-08-08T10:29:40Z</time>
      </trkpt>
      <trkpt lat="43.32876" lon="5.2242">
        <ele>45</ele>
        <time>2014-08-08T10:30:08Z</time>
      </trkpt>
      <trkpt lat="43.32881" lon="5.2239">
        <ele>46.2</ele>
        <time>2014-08-08T10:30:55Z</time>
      </trkpt>
      <trkpt lat="43.3288" lon="5.2236">
        <ele>47</ele>
        <time>2014-08-08T10:31:29Z</time>
      </trkpt>
      <trkpt lat="43.32891" lon="5.22334">
        <ele>45</ele>
        <time>2014-08-08T10:33:43Z</time>
      </trkpt>
      <trkpt lat="43.32889" lon="5.22303">
        <ele>44.2</ele>
        <time>2014-08-08T10:34:10Z</time>
      </trkpt>
      <trkpt lat="43.32883" lon="5.22274">
        <ele>43.9</ele>
        <time>2014-08-08T10:34:37Z</time>
      </trkpt>
      <trkpt lat="43.32888" lon="5.22245">
        <ele>43.7</ele>
        <time>2014-08-08T10:35:07Z</time>
      </trkpt>
      <trkpt lat="43.32904" lon="5.22225">
        <ele>44.7</ele>
        <time>2014-08-08T10:35:28Z</time>
      </trkpt>
      <trkpt lat="43.32906" lon="5.22194">
        <ele>45.2</ele>
        <time>2014-08-08T10:35:53Z</time>
      </trkpt>
      <trkpt lat="43.32906" lon="5.22164">
        <ele>44.7</ele>
        <time>2014-08-08T10:36:50Z</time>
      </trkpt>
      <trkpt lat="43.32895" lon="5.22138">
        <ele>44.7</ele>
        <time>2014-08-08T10:37:26Z</time>
      </trkpt>
      <trkpt lat="43.32886" lon="5.2211">
        <ele>43.5</ele>
        <time>2014-08-08T10:38:00Z</time>
      </trkpt>
      <trkpt lat="43.3288" lon="5.2208">
        <ele>42.7</ele>
        <time>2014-08-08T10:38:47Z</time>
      </trkpt>
      <trkpt lat="43.32887" lon="5.22051">
        <ele>41.4</ele>
        <time>2014-08-08T10:39:50Z</time>
      </trkpt>
      <trkpt lat="43.32905" lon="5.22068">
        <ele>39.4</ele>
        <time>2014-08-08T10:43:34Z</time>
      </trkpt>
      <trkpt lat="43.32927" lon="5.22073">
        <ele>38.4</ele>
        <time>2014-08-08T10:43:55Z</time>
      </trkpt>
      <trkpt lat="43.32945" lon="5.22088">
        <ele>37.5</ele>
        <time>2014-08-08T10:44:12Z</time>
      </trkpt>
      <trkpt lat="43.32966" lon="5.22091">
        <ele>36.5</ele>
        <time>2014-08-08T10:44:24Z</time>
      </trkpt>
      <trkpt lat="43.32987" lon="5.22079">
        <ele>35</ele>
        <time>2014-08-08T10:44:45Z</time>
      </trkpt>
      <trkpt lat="43.33009" lon="5.22081">
        <ele>31.6</ele>
        <time>2014-08-08T10:45:03Z</time>
      </trkpt>
      <trkpt lat="43.33029" lon="5.22092">
        <ele>30.2</ele>
        <time>2014-08-08T10:45:26Z</time>
      </trkpt>
      <trkpt lat="43.33051" lon="5.2209">
        <ele>29.8</ele>
        <time>2014-08-08T10:45:41Z</time>
      </trkpt>
      <trkpt lat="43.33072" lon="5.2208">
        <ele>28.8</ele>
        <time>2014-08-08T10:46:12Z</time>
      </trkpt>
      <trkpt lat="43.33075" lon="5.2205">
        <ele>26.7</ele>
        <time>2014-08-08T10:46:33Z</time>
      </trkpt>
      <trkpt lat="43.33076" lon="5.22019">
        <ele>24.2</ele>
        <time>2014-08-08T10:46:53Z</time>
      </trkpt>
      <trkpt lat="43.3308" lon="5.21989">
        <ele>20.7</ele>
        <time>2014-08-08T10:47:36Z</time>
      </trkpt>
      <trkpt lat="43.33098" lon="5.21972">
        <ele>20.1</ele>
        <time>2014-08-08T10:48:09Z</time>
      </trkpt>
      <trkpt lat="43.331" lon="5.21942">
        <ele>19</ele>
        <time>2014-08-08T10:53:25Z</time>
      </trkpt>
      <trkpt lat="43.33093" lon="5.21912">
        <ele>17.5</ele>
        <time>2014-08-08T10:54:12Z</time>
      </trkpt>
      <trkpt lat="43.33112" lon="5.21897">
        <ele>16.7</ele>
        <time>2014-08-08T10:54:41Z</time>
      </trkpt>
      <trkpt lat="43.33134" lon="5.21895">
        <ele>16.6</ele>
        <time>2014-08-08T10:55:05Z</time>
      </trkpt>
      <trkpt lat="43.33146" lon="5.21871">
        <ele>16.6</ele>
        <time>2014-08-08T10:55:59Z</time>
      </trkpt>
      <trkpt lat="43.33159" lon="5.21846">
        <ele>17.8</ele>
        <time>2014-08-08T10:56:20Z</time>
      </trkpt>
      <trkpt lat="43.33175" lon="5.21826">
        <ele>19</ele>
        <time>2014-08-08T10:56:39Z</time>
      </trkpt>
      <trkpt lat="43.33197" lon="5.21826">
        <ele>19.6</ele>
        <time>2014-08-08T10:57:00Z</time>
      </trkpt>
      <trkpt lat="43.3318" lon="5.21806">
        <ele>19.2</ele>
        <time>2014-08-08T11:01:05Z</time>
      </trkpt>
      <trkpt lat="43.33158" lon="5.21811">
        <ele>19</ele>
        <time>2014-08-08T11:34:07Z</time>
      </trkpt>
      <trkpt lat="43.33137" lon="5.21807">
        <ele>17.2</ele>
        <time>2014-08-08T11:34:45Z</time>
      </trkpt>
      <trkpt lat="43.33134" lon="5.21778">
        <ele>15.3</ele>
        <time>2014-08-08T11:35:05Z</time>
      </trkpt>
      <trkpt lat="43.33138" lon="5.21747">
        <ele>14</ele>
        <time>2014-08-08T11:35:32Z</time>
      </trkpt>
      <trkpt lat="43.33136" lon="5.21718">
        <ele>14.8</ele>
        <time>2014-08-08T11:35:50Z</time>
      </trkpt>
      <trkpt lat="43.33121" lon="5.21696">
        <ele>15.8</ele>
        <time>2014-08-08T11:36:07Z</time>
      </trkpt>
      <trkpt lat="43.33099" lon="5.2169">
        <ele>15.3</ele>
        <time>2014-08-08T11:36:24Z</time>
      </trkpt>
      <trkpt lat="43.33083" lon="5.21669">
        <ele>16.3</ele>
        <time>2014-08-08T11:36:55Z</time>
      </trkpt>
      <trkpt lat="43.33062" lon="5.21663">
        <ele>15.6</ele>
        <time>2014-08-08T11:37:20Z</time>
      </trkpt>
      <trkpt lat="43.33046" lon="5.21683">
        <ele>15.6</ele>
        <time>2014-08-08T11:37:37Z</time>
      </trkpt>
      <trkpt lat="43.33046" lon="5.21653">
        <ele>13</ele>
        <time>2014-08-08T11:39:08Z</time>
      </trkpt>
      <trkpt lat="43.33064" lon="5.21638">
        <ele>12.8</ele>
        <time>2014-08-08T11:39:32Z</time>
      </trkpt>
      <trkpt lat="43.33086" lon="5.21634">
        <ele>13.3</ele>
        <time>2014-08-08T11:39:46Z</time>
      </trkpt>
      <trkpt lat="43.33106" lon="5.21629">
        <ele>14.8</ele>
        <time>2014-08-08T11:40:06Z</time>
      </trkpt>
      <trkpt lat="43.33128" lon="5.2163">
        <ele>14.8</ele>
        <time>2014-08-08T11:40:23Z</time>
      </trkpt>
      <trkpt lat="43.33148" lon="5.21617">
        <ele>15.3</ele>
        <time>2014-08-08T11:40:40Z</time>
      </trkpt>
      <trkpt lat="43.33163" lon="5.21596">
        <ele>16.5</ele>
        <time>2014-08-08T11:41:03Z</time>
      </trkpt>
      <trkpt lat="43.33173" lon="5.2157">
        <ele>17.7</ele>
        <time>2014-08-08T11:41:20Z</time>
      </trkpt>
      <trkpt lat="43.33171" lon="5.21539">
        <ele>18.8</ele>
        <time>2014-08-08T11:41:45Z</time>
      </trkpt>
      <trkpt lat="43.33163" lon="5.21511">
        <ele>21.2</ele>
        <time>2014-08-08T11:42:05Z</time>
      </trkpt>
      <trkpt lat="43.33159" lon="5.21482">
        <ele>22.7</ele>
        <time>2014-08-08T11:42:22Z</time>
      </trkpt>
      <trkpt lat="43.33157" lon="5.21451">
        <ele>23.7</ele>
        <time>2014-08-08T11:42:44Z</time>
      </trkpt>
      <trkpt lat="43.33166" lon="5.21424">
        <ele>24.6</ele>
        <time>2014-08-08T11:42:58Z</time>
      </trkpt>
      <trkpt lat="43.33171" lon="5.21394">
        <ele>25.7</ele>
        <time>2014-08-08T11:43:22Z</time>
      </trkpt>
      <trkpt lat="43.33171" lon="5.21363">
        <ele>25.8</ele>
        <time>2014-08-08T11:44:06Z</time>
      </trkpt>
      <trkpt lat="43.33178" lon="5.21334">
        <ele>23.5</ele>
        <time>2014-08-08T11:45:05Z</time>
      </trkpt>
      <trkpt lat="43.33186" lon="5.21306">
        <ele>22.2</ele>
        <time>2014-08-08T11:45:21Z</time>
      </trkpt>
      <trkpt lat="43.33188" lon="5.21276">
        <ele>21.2</ele>
        <time>2014-08-08T11:45:41Z</time>
      </trkpt>
      <trkpt lat="43.33184" lon="5.21246">
        <ele>19.3</ele>
        <time>2014-08-08T11:46:05Z</time>
      </trkpt>
      <trkpt lat="43.33181" lon="5.21216">
        <ele>18.6</ele>
        <time>2014-08-08T11:46:27Z</time>
      </trkpt>
      <trkpt lat="43.33182" lon="5.21186">
        <ele>17.7</ele>
        <time>2014-08-08T11:46:48Z</time>
      </trkpt>
      <trkpt lat="43.33184" lon="5.21156">
        <ele>16.5</ele>
        <time>2014-08-08T11:47:09Z</time>
      </trkpt>
      <trkpt lat="43.33181" lon="5.21127">
        <ele>16.1</ele>
        <time>2014-08-08T11:47:30Z</time>
      </trkpt>
      <trkpt lat="43.33177" lon="5.21098">
        <ele>16.7</ele>
        <time>2014-08-08T11:47:45Z</time>
      </trkpt>
      <trkpt lat="43.33161" lon="5.21079">
        <ele>16.6</ele>
        <time>2014-08-08T11:48:04Z</time>
      </trkpt>
      <trkpt lat="43.33141" lon="5.21067">
        <ele>15.6</ele>
        <time>2014-08-08T11:48:17Z</time>
      </trkpt>
      <trkpt lat="43.33119" lon="5.21061">
        <ele>13.8</ele>
        <time>2014-08-08T11:48:31Z</time>
      </trkpt>
      <trkpt lat="43.33098" lon="5.21053">
        <ele>12.1</ele>
        <time>2014-08-08T11:48:48Z</time>
      </trkpt>
      <trkpt lat="43.33076" lon="5.21049">
        <ele>11.6</ele>
        <time>2014-08-08T11:49:06Z</time>
      </trkpt>
      <trkpt lat="43.33054" lon="5.21054">
        <ele>12</ele>
        <time>2014-08-08T11:49:27Z</time>
      </trkpt>
      <trkpt lat="43.33051" lon="5.21024">
        <ele>13.1</ele>
        <time>2014-08-08T11:50:08Z</time>
      </trkpt>
      <trkpt lat="43.3304" lon="5.20998">
        <ele>11.5</ele>
        <time>2014-08-08T11:50:30Z</time>
      </trkpt>
      <trkpt lat="43.33021" lon="5.20983">
        <ele>9.8</ele>
        <time>2014-08-08T11:50:53Z</time>
      </trkpt>
      <trkpt lat="43.33" lon="5.20972">
        <ele>9.1</ele>
        <time>2014-08-08T11:51:12Z</time>
      </trkpt>
      <trkpt lat="43.32978" lon="5.20972">
        <ele>8.8</ele>
        <time>2014-08-08T11:51:39Z</time>
      </trkpt>
      <trkpt lat="43.32963" lon="5.20995">
        <ele>7.9</ele>
        <time>2014-08-08T11:52:00Z</time>
      </trkpt>
      <trkpt lat="43.32947" lon="5.20973">
        <ele>12.1</ele>
        <time>2014-08-08T11:54:29Z</time>
      </trkpt>
      <trkpt lat="43.32946" lon="5.20943">
        <ele>14.8</ele>
        <time>2014-08-08T11:55:00Z</time>
      </trkpt>
      <trkpt lat="43.32945" lon="5.20912">
        <ele>14.6</ele>
        <time>2014-08-08T11:55:30Z</time>
      </trkpt>
      <trkpt lat="43.32951" lon="5.20883">
        <ele>12.3</ele>
        <time>2014-08-08T11:55:52Z</time>
      </trkpt>
      <trkpt lat="43.32955" lon="5.20853">
        <ele>9</ele>
        <time>2014-08-08T11:56:52Z</time>
      </trkpt>
      <trkpt lat="43.32969" lon="5.2083">
        <ele>7.5</ele>
        <time>2014-08-08T11:57:17Z</time>
      </trkpt>
      <trkpt lat="43.32987" lon="5.20813">
        <ele>4.4</ele>
        <time>2014-08-08T11:57:58Z</time>
      </trkpt>
      <trkpt lat="43.33002" lon="5.20791">
        <ele>2</ele>
        <time>2014-08-08T11:58:23Z</time>
      </trkpt>
      <trkpt lat="43.33022" lon="5.20778">
        <ele>0.1</ele>
        <time>2014-08-08T11:58:46Z</time>
      </trkpt>
      <trkpt lat="43.33038" lon="5.20757">
        <ele>0.1</ele>
        <time>2014-08-08T11:59:04Z</time>
      </trkpt>
      <trkpt lat="43.33049" lon="5.20732">
        <ele>0.1</ele>
        <time>2014-08-08T11:59:22Z</time>
      </trkpt>
      <trkpt lat="43.33056" lon="5.20704">
        <ele>0.1</ele>
        <time>2014-08-08T11:59:43Z</time>
      </trkpt>
      <trkpt lat="43.33065" lon="5.20675">
        <ele>0.1</ele>
        <time>2014-08-08T12:00:07Z</time>
      </trkpt>
      <trkpt lat="43.33077" lon="5.20649">
        <ele>0.1</ele>
        <time>2014-08-08T12:00:43Z</time>
      </trkpt>
      <trkpt lat="43.33083" lon="5.20621">
        <ele>0.1</ele>
        <time>2014-08-08T12:01:05Z</time>
      </trkpt>
      <trkpt lat="43.33083" lon="5.20591">
        <ele>0.4</ele>
        <time>2014-08-08T12:01:23Z</time>
      </trkpt>
      <trkpt lat="43.33082" lon="5.20561">
        <ele>0.4</ele>
        <time>2014-08-08T12:01:52Z</time>
      </trkpt>
      <trkpt lat="43.33085" lon="5.20531">
        <ele>0.1</ele>
        <time>2014-08-08T12:02:17Z</time>
      </trkpt>
      <trkpt lat="43.33087" lon="5.20501">
        <ele>0.1</ele>
        <time>2014-08-08T12:02:40Z</time>
      </trkpt>
      <trkpt lat="43.33089" lon="5.20471">
        <ele>0.1</ele>
        <time>2014-08-08T12:03:37Z</time>
      </trkpt>
      <trkpt lat="43.33098" lon="5.20442">
        <ele>0.1</ele>
        <time>2014-08-08T12:04:05Z</time>
      </trkpt>
      <trkpt lat="43.33099" lon="5.20413">
        <ele>0.1</ele>
        <time>2014-08-08T12:04:34Z</time>
      </trkpt>
      <trkpt lat="43.33105" lon="5.20384">
        <ele>0.1</ele>
        <time>2014-08-08T12:04:56Z</time>
      </trkpt>
      <trkpt lat="43.33116" lon="5.20358">
        <ele>0.1</ele>
        <time>2014-08-08T12:05:31Z</time>
      </trkpt>
      <trkpt lat="43.33133" lon="5.20339">
        <ele>0.1</ele>
        <time>2014-08-08T12:06:28Z</time>
      </trkpt>
      <trkpt lat="43.33133" lon="5.20309">
        <ele>0.1</ele>
        <time>2014-08-08T12:07:10Z</time>
      </trkpt>
      <trkpt lat="43.33135" lon="5.20278">
        <ele>0.1</ele>
        <time>2014-08-08T12:07:43Z</time>
      </trkpt>
      <trkpt lat="43.3313" lon="5.20249">
        <ele>0.1</ele>
        <time>2014-08-08T12:08:05Z</time>
      </trkpt>
      <trkpt lat="43.33134" lon="5.20219">
        <ele>0.1</ele>
        <time>2014-08-08T12:08:35Z</time>
      </trkpt>
      <trkpt lat="43.33145" lon="5.20192">
        <ele>0.1</ele>
        <time>2014-08-08T12:08:56Z</time>
      </trkpt>
      <trkpt lat="43.33153" lon="5.20164">
        <ele>1.8</ele>
        <time>2014-08-08T12:09:15Z</time>
      </trkpt>
      <trkpt lat="43.33161" lon="5.20136">
        <ele>4.3</ele>
        <time>2014-08-08T12:09:33Z</time>
      </trkpt>
      <trkpt lat="43.33169" lon="5.20108">
        <ele>6.4</ele>
        <time>2014-08-08T12:09:51Z</time>
      </trkpt>
      <trkpt lat="43.33179" lon="5.2008">
        <ele>8.1</ele>
        <time>2014-08-08T12:10:12Z</time>
      </trkpt>
      <trkpt lat="43.33187" lon="5.20052">
        <ele>9.6</ele>
        <time>2014-08-08T12:10:32Z</time>
      </trkpt>
      <trkpt lat="43.332" lon="5.20028">
        <ele>10.8</ele>
        <time>2014-08-08T12:10:51Z</time>
      </trkpt>
      <trkpt lat="43.33214" lon="5.20004">
        <ele>11.3</ele>
        <time>2014-08-08T12:11:11Z</time>
      </trkpt>
      <trkpt lat="43.33234" lon="5.19991">
        <ele>11.1</ele>
        <time>2014-08-08T12:11:38Z</time>
      </trkpt>
      <trkpt lat="43.33252" lon="5.20008">
        <ele>10.5</ele>
        <time>2014-08-08T12:12:01Z</time>
      </trkpt>
      <trkpt lat="43.33271" lon="5.20023">
        <ele>12.1</ele>
        <time>2014-08-08T12:12:28Z</time>
      </trkpt>
      <trkpt lat="43.3329" lon="5.20039">
        <ele>13.1</ele>
        <time>2014-08-08T12:12:59Z</time>
      </trkpt>
      <trkpt lat="43.33309" lon="5.20025">
        <ele>11.1</ele>
        <time>2014-08-08T12:13:30Z</time>
      </trkpt>
      <trkpt lat="43.33325" lon="5.20005">
        <ele>10</ele>
        <time>2014-08-08T12:13:48Z</time>
      </trkpt>
      <trkpt lat="43.33342" lon="5.19985">
        <ele>8.1</ele>
        <time>2014-08-08T12:14:14Z</time>
      </trkpt>
      <trkpt lat="43.33355" lon="5.19959">
        <ele>6.3</ele>
        <time>2014-08-08T12:14:34Z</time>
      </trkpt>
      <trkpt lat="43.33358" lon="5.19929">
        <ele>5.5</ele>
        <time>2014-08-08T12:14:56Z</time>
      </trkpt>
      <trkpt lat="43.33347" lon="5.19903">
        <ele>4.8</ele>
        <time>2014-08-08T12:15:16Z</time>
      </trkpt>
      <trkpt lat="43.33351" lon="5.19873">
        <ele>0.3</ele>
        <time>2014-08-08T12:16:42Z</time>
      </trkpt>
      <trkpt lat="43.3337" lon="5.19858">
        <ele>0.3</ele>
        <time>2014-08-08T12:17:08Z</time>
      </trkpt>
      <trkpt lat="43.33384" lon="5.19834">
        <ele>0.3</ele>
        <time>2014-08-08T12:17:29Z</time>
      </trkpt>
      <trkpt lat="43.33393" lon="5.19805">
        <ele>0.3</ele>
        <time>2014-08-08T12:17:55Z</time>
      </trkpt>
      <trkpt lat="43.33399" lon="5.19776">
        <ele>0.3</ele>
        <time>2014-08-08T12:18:14Z</time>
      </trkpt>
      <trkpt lat="43.33399" lon="5.19775">
        <ele>0.3</ele>
        <time>2014-08-08T12:18:23Z</time>
      </trkpt>
      <trkpt lat="43.33398" lon="5.19775">
        <ele>0.3</ele>
        <time>2014-08-08T12:18:24Z</time>
      </trkpt>
    </trkseg>
  </trk>
</gpx>